Archival Weather

NSFA McMurdo Sound

NSFA McMurdo Sound, Antarctica (NZCM)

Report from: Friday, September 23, 2022 8:55 PM UTC
Current time: Sunday, December 4, 2022 1:10 PM UTC

Current weather
Weather history
Weather forecast

Present weatherLight snow, mist
Temperature-14.2°C (6.4°F)
Wind chill-22.8°C (-9.0°F)
Dew point-17.5°C (0.5°F)
Winds 10 kts (5.1 m/s, 11.5 mph) Vrb
Wind gusts 20 kts (10.3 m/s, 23 mph)
Winds variableWinds variable from East (80°) to South (170°)
Peak wind 27 kts (13.9 m/s, 31.1 mph) South (180°) at 15:12
Visibility1 mi. (1.6 km)
Clouds Ceiling: Vertical visibility 800 ft. (244 m)
Altimeter28.66 in.Hg (971 mB)
Precip. events Snow began 7:57 PM
Relative humidity76 %
Density altitude-2,157 ft. (-657 m)
Sea-level pressure107.1 kPa (1071 mB, 31.63 in.Hg)
Remarks Fully automated report
System requires maintenance
Automated weather observing station with precipitation discriminator
Pressure rising more slowly
Flight conditions Low Instrument Meteorological Conditions
Raw dataNZCM 232055Z AUTO 13010G20KT 080V170 1600 -SN BR VV008 M14/M18 A2866 RMK AO2 PK WND 18027/2012 WSHFT 2023 SNB1957 SLP710 T11421175 51022 $
An error has occurred. This application may no longer respond until reloaded. Reload 🗙